createdAt,value
2019-04-23T00:01:23.570Z,99.90
2019-04-23T00:03:47.540Z,99.90
2019-04-23T00:06:19.139Z,99.90
2019-04-23T00:08:54.504Z,99.90
2019-04-23T00:21:38.165Z,99.90
2019-04-23T00:26:47.613Z,99.90
2019-04-23T00:29:05.358Z,99.90
2019-04-23T00:31:31.730Z,99.90
2019-04-23T00:34:05.380Z,99.90
2019-04-23T00:36:44.166Z,99.90
2019-04-23T00:39:18.795Z,99.90
2019-04-23T00:44:04.054Z,99.90
2019-04-23T00:46:35.275Z,99.90
2019-04-23T00:49:05.830Z,99.90
2019-04-23T00:51:32.888Z,99.90
2019-04-23T00:54:06.464Z,99.90
2019-04-23T00:59:00.714Z,99.90
2019-04-23T01:04:20.796Z,99.90
2019-04-23T01:06:34.439Z,99.90
2019-04-23T01:09:04.790Z,99.90
2019-04-23T01:11:33.843Z,99.90
2019-04-23T01:16:32.878Z,99.10
2019-04-23T01:19:24.852Z,99.20
2019-04-23T01:21:34.952Z,99.30
2019-04-23T01:24:16.009Z,99.90
2019-04-23T01:27:39.330Z,99.90
2019-04-23T01:30:03.260Z,99.90
2019-04-23T01:32:28.917Z,99.90
2019-04-23T01:35:06.580Z,99.90
2019-04-23T01:37:28.841Z,99.90
2019-04-23T01:39:57.532Z,99.90
2019-04-23T01:42:38.887Z,99.90
2019-04-23T01:45:05.415Z,99.90
2019-04-23T01:47:32.044Z,99.90
2019-04-23T01:50:01.992Z,99.90
2019-04-23T01:52:34.960Z,99.90
2019-04-23T01:55:00.813Z,99.90
2019-04-23T01:57:34.811Z,99.90
2019-04-23T02:00:01.947Z,99.90
2019-04-23T02:02:38.819Z,99.90
2019-04-23T02:05:01.490Z,99.90
2019-04-23T02:07:38.783Z,99.90
2019-04-23T02:10:07.055Z,99.90
2019-04-23T02:12:32.968Z,99.90
2019-04-23T02:15:11.180Z,99.90
2019-04-23T02:20:16.127Z,99.90
2019-04-23T02:23:04.660Z,99.90
2019-04-23T02:25:41.201Z,99.90
2019-04-23T02:28:04.785Z,99.90
2019-04-23T02:30:53.556Z,99.90
2019-04-23T02:35:50.519Z,99.90
2019-04-23T02:38:10.170Z,99.90
2019-04-23T02:40:58.790Z,99.90
2019-04-23T02:43:15.114Z,99.90
2019-04-23T02:45:54.583Z,99.90
2019-04-23T02:48:27.128Z,99.90
2019-04-23T02:50:40.476Z,99.90
2019-04-23T02:53:14.456Z,99.90
2019-04-23T02:55:55.017Z,99.90
2019-04-23T02:58:21.811Z,99.90
2019-04-23T03:00:55.767Z,99.90
2019-04-23T03:03:23.103Z,99.90
2019-04-23T03:05:46.679Z,99.90
2019-04-23T03:11:26.015Z,99.90
2019-04-23T03:14:03.639Z,99.90
2019-04-23T03:16:37.856Z,99.90
2019-04-23T03:19:19.189Z,99.90
2019-04-23T03:21:51.861Z,99.90
2019-04-23T03:24:34.667Z,99.90
2019-04-23T03:29:45.082Z,99.90
2019-04-23T03:37:23.207Z,99.90
2019-04-23T03:39:52.957Z,99.90
2019-04-23T03:42:11.588Z,99.90
2019-04-23T03:44:40.178Z,99.90
2019-04-23T03:49:41.096Z,99.90
2019-04-23T03:52:12.104Z,99.90
2019-04-23T03:54:42.153Z,99.90
2019-04-23T03:57:13.357Z,99.90
2019-04-23T03:59:52.032Z,99.90
2019-04-23T04:02:20.615Z,99.90
2019-04-23T04:04:33.470Z,99.90
2019-04-23T04:09:51.711Z,99.90
2019-04-23T04:17:26.299Z,99.90
2019-04-23T04:22:38.068Z,99.90
2019-04-23T04:25:03.274Z,99.90
2019-04-23T04:27:36.572Z,99.90
2019-04-23T04:30:22.239Z,99.90
2019-04-23T04:43:11.280Z,99.90
2019-04-23T04:45:37.124Z,99.90
2019-04-23T04:47:44.845Z,99.90
2019-04-23T04:50:24.072Z,99.90
2019-04-23T04:52:57.984Z,99.90
2019-04-23T04:55:21.201Z,99.90
2019-04-23T04:57:52.167Z,99.90
2019-04-23T05:00:32.922Z,99.90
2019-04-23T05:07:54.703Z,99.90
2019-04-23T05:13:03.556Z,99.90
2019-04-23T05:15:18.855Z,99.90
2019-04-23T05:23:18.381Z,99.90
2019-04-23T05:25:32.004Z,99.90
2019-04-23T05:28:12.605Z,99.90
2019-04-23T05:33:13.298Z,99.90
2019-04-23T05:36:02.641Z,99.90
2019-04-23T05:38:21.866Z,99.90
2019-04-23T05:40:49.823Z,99.90
2019-04-23T05:43:30.749Z,99.90
2019-04-23T05:45:44.719Z,99.90
2019-04-23T05:48:14.991Z,99.90
2019-04-23T05:53:14.597Z,99.90
2019-04-23T05:55:42.703Z,99.90
2019-04-23T05:58:16.634Z,99.90
2019-04-23T06:00:45.081Z,99.90
2019-04-23T06:03:16.054Z,99.90
2019-04-23T06:05:48.084Z,99.90
2019-04-23T06:08:20.219Z,99.90
2019-04-23T06:10:56.706Z,99.90
2019-04-23T06:13:22.477Z,99.90
2019-04-23T06:16:05.018Z,99.90
2019-04-23T06:18:26.672Z,99.90
2019-04-23T06:23:33.098Z,99.90
2019-04-23T06:26:10.177Z,99.90
2019-04-23T06:28:23.804Z,99.90
2019-04-23T06:30:54.374Z,99.90
2019-04-23T06:33:20.961Z,99.90
2019-04-23T06:35:51.604Z,99.90
2019-04-23T06:40:55.398Z,99.90
2019-04-23T06:43:56.359Z,99.90
2019-04-23T06:46:11.848Z,99.90
2019-04-23T06:48:44.480Z,99.90
2019-04-23T06:53:36.335Z,99.90
2019-04-23T06:56:17.723Z,99.90
2019-04-23T06:58:43.310Z,99.90
2019-04-23T07:01:12.988Z,99.90
2019-04-23T07:03:51.824Z,99.90
2019-04-23T07:09:09.946Z,99.90
2019-04-23T07:11:23.783Z,99.90
2019-04-23T07:16:14.654Z,99.90
2019-04-23T07:21:18.339Z,99.90
2019-04-23T07:23:54.682Z,99.90
2019-04-23T07:26:30.429Z,99.80
2019-04-23T07:28:53.181Z,98.90
2019-04-23T07:31:21.501Z,98.70
2019-04-23T07:33:52.169Z,98.10
2019-04-23T07:36:24.421Z,98.30
2019-04-23T07:39:01.111Z,98.00
2019-04-23T07:49:41.151Z,96.50
2019-04-23T07:52:10.655Z,95.80
2019-04-23T07:54:39.996Z,96.20
2019-04-23T07:57:18.719Z,95.40
2019-04-23T07:59:56.408Z,95.40
2019-04-23T08:02:28.967Z,95.10
2019-04-23T08:05:00.576Z,94.70
2019-04-23T08:07:26.860Z,95.10
2019-04-23T08:10:02.361Z,94.50
2019-04-23T08:14:59.737Z,94.20
2019-04-23T08:17:27.842Z,94.10
2019-04-23T08:19:59.387Z,94.10
2019-04-23T08:25:19.229Z,94.30
2019-04-23T08:27:38.360Z,94.60
2019-04-23T08:30:07.558Z,94.50
2019-04-23T08:32:27.697Z,94.20
2019-04-23T08:35:10.846Z,93.40
2019-04-23T08:40:13.258Z,93.40
2019-04-23T08:42:46.781Z,93.80
2019-04-23T08:45:22.588Z,93.60
2019-04-23T08:47:50.692Z,93.00
2019-04-23T08:50:23.341Z,92.70
2019-04-23T08:52:56.149Z,93.60
2019-04-23T08:55:34.615Z,93.40
2019-04-23T08:57:47.494Z,91.60
2019-04-23T09:00:23.182Z,91.20
2019-04-23T09:03:02.738Z,92.30
2019-04-23T09:07:59.788Z,90.90
2019-04-23T09:10:31.701Z,91.00
2019-04-23T09:13:14.491Z,90.70
2019-04-23T09:15:31.591Z,90.80
2019-04-23T09:18:02.828Z,91.20
2019-04-23T09:22:51.760Z,90.40
2019-04-23T09:25:36.727Z,91.40
2019-04-23T09:28:23.851Z,90.60
2019-04-23T09:30:28.576Z,88.80
2019-04-23T09:32:58.841Z,88.60
2019-04-23T09:35:30.846Z,89.20
2019-04-23T09:44:12.216Z,86.40
2019-04-23T09:46:34.452Z,85.30
2019-04-23T09:49:10.629Z,85.20
2019-04-23T09:51:38.240Z,83.50
2019-04-23T09:54:09.487Z,84.70
2019-04-23T09:56:36.387Z,83.20
2019-04-23T09:59:08.963Z,84.80
2019-04-23T10:01:41.022Z,82.50
2019-04-23T10:03:51.622Z,84.20
2019-04-23T10:06:18.090Z,84.80
2019-04-23T10:08:46.793Z,86.70
2019-04-23T10:11:11.304Z,85.20
2019-04-23T10:13:40.705Z,86.00
2019-04-23T10:16:12.211Z,87.20
2019-04-23T10:18:39.473Z,84.00
2019-04-23T10:21:08.020Z,84.60
2019-04-23T10:23:37.031Z,82.60
2019-04-23T10:26:06.235Z,83.70
2019-04-23T10:28:38.038Z,84.40
2019-04-23T10:31:07.191Z,82.50
2019-04-23T10:33:35.807Z,80.50
2019-04-23T10:36:11.038Z,79.10
2019-04-23T10:38:36.368Z,81.40
2019-04-23T10:41:06.418Z,78.40
2019-04-23T10:43:38.753Z,83.00
2019-04-23T10:46:25.587Z,81.40
2019-04-23T10:51:41.304Z,78.40
2019-04-23T10:54:29.156Z,75.60
2019-04-23T10:56:47.865Z,74.60
2019-04-23T10:59:38.912Z,75.20
2019-04-23T11:02:31.598Z,74.60
2019-04-23T11:07:20.512Z,73.00
2019-04-23T11:15:27.180Z,68.40
2019-04-23T11:20:35.381Z,72.60
2019-04-23T11:22:56.775Z,75.60
2019-04-23T11:25:32.969Z,71.20
2019-04-23T11:35:42.466Z,70.40
2019-04-23T11:38:06.524Z,66.80
2019-04-23T11:38:32.547Z,69.00
2019-04-23T11:40:28.240Z,73.60
2019-04-23T11:43:11.505Z,69.60
2019-04-23T11:50:59.847Z,74.40
2019-04-23T11:55:39.200Z,74.70
2019-04-23T12:00:45.530Z,73.30
2019-04-23T12:03:19.412Z,69.70
2019-04-23T12:06:27.722Z,72.00
2019-04-23T12:08:57.085Z,71.10
2019-04-23T12:14:24.210Z,72.80
2019-04-23T12:17:08.030Z,69.10
2019-04-23T12:22:02.910Z,68.50
2019-04-23T12:24:58.617Z,69.00
2019-04-23T12:27:08.134Z,66.60
2019-04-23T12:32:41.825Z,71.20
2019-04-23T12:37:40.718Z,68.80
2019-04-23T12:42:48.731Z,63.60
2019-04-23T12:45:05.134Z,62.20
2019-04-23T12:47:44.927Z,59.60
2019-04-23T12:50:31.170Z,59.80
2019-04-23T12:52:41.243Z,63.10
2019-04-23T12:55:15.032Z,63.20
2019-04-23T12:57:34.462Z,63.90
2019-04-23T13:00:09.963Z,66.60
2019-04-23T13:05:23.858Z,65.50
2019-04-23T13:07:38.054Z,66.30
2019-04-23T13:10:20.997Z,69.20
2019-04-23T13:12:44.928Z,67.10
2019-04-23T13:15:13.638Z,64.30
2019-04-23T13:20:23.262Z,64.50
2019-04-23T13:25:32.962Z,62.80
2019-04-23T13:28:02.906Z,64.40
2019-04-23T13:30:31.491Z,65.70
2019-04-23T13:33:02.775Z,64.50
2019-04-23T13:37:59.297Z,69.20
2019-04-23T13:40:31.614Z,70.50
2019-04-23T13:43:06.897Z,69.60
2019-04-23T13:59:15.637Z,70.20
2019-04-23T14:04:26.913Z,74.00
2019-04-23T14:35:04.787Z,75.90
2019-04-23T14:40:21.920Z,75.70
2019-04-23T14:46:23.440Z,75.90
2019-04-23T14:54:35.976Z,74.10
2019-04-23T14:57:03.562Z,74.40
2019-04-23T14:59:13.412Z,75.10
2019-04-23T15:18:35.682Z,74.40
2019-04-23T15:21:28.715Z,72.90
2019-04-23T15:24:00.225Z,73.00
2019-04-23T15:28:15.045Z,71.00
2019-04-23T15:31:20.779Z,70.50
2019-04-23T15:33:51.746Z,69.50
2019-04-23T15:38:55.762Z,71.40
2019-04-23T15:41:19.787Z,70.20
2019-04-23T15:47:04.626Z,70.40
2019-04-23T15:49:36.410Z,70.20
2019-04-23T15:52:09.014Z,69.30
2019-04-23T15:54:45.418Z,68.90
2019-04-23T16:01:43.262Z,67.10
2019-04-23T16:04:11.312Z,67.00
2019-04-23T16:06:41.549Z,66.80
2019-04-23T16:12:09.731Z,68.60
2019-04-23T16:14:49.426Z,68.80
2019-04-23T16:17:24.070Z,69.80
2019-04-23T16:20:06.209Z,70.50
2019-04-23T16:22:28.462Z,72.80
2019-04-23T16:25:01.124Z,73.30
2019-04-23T16:27:22.422Z,76.10
2019-04-23T16:30:09.526Z,74.90
2019-04-23T16:32:52.356Z,75.10
2019-04-23T16:35:28.276Z,77.40
2019-04-23T16:37:49.255Z,80.60
2019-04-23T16:40:19.981Z,82.40
2019-04-23T16:42:53.913Z,84.40
2019-04-23T16:47:48.439Z,85.00
2019-04-23T16:50:20.870Z,85.20
2019-04-23T16:52:51.900Z,84.90
2019-04-23T16:55:17.778Z,86.30
2019-04-23T16:57:59.810Z,85.60
2019-04-23T17:02:54.759Z,84.80
2019-04-23T17:05:23.464Z,84.60
2019-04-23T17:08:06.730Z,84.80
2019-04-23T17:10:23.249Z,85.40
2019-04-23T17:12:54.725Z,84.90
2019-04-23T17:17:46.686Z,85.80
2019-04-23T17:20:28.835Z,85.20
2019-04-23T17:25:17.261Z,85.50
2019-04-23T17:27:54.450Z,85.60
2019-04-23T17:30:20.366Z,84.70
2019-04-23T17:33:13.785Z,85.20
2019-04-23T17:35:41.928Z,88.00
2019-04-23T17:38:21.215Z,87.50
2019-04-23T17:41:05.785Z,87.50
2019-04-23T17:46:22.503Z,88.10
2019-04-23T17:48:55.127Z,89.20
2019-04-23T17:51:19.794Z,90.00
2019-04-23T17:53:54.486Z,88.90
2019-04-23T17:59:00.727Z,89.60
2019-04-23T18:04:10.367Z,90.30
2019-04-23T18:06:45.312Z,90.30
2019-04-23T18:09:16.731Z,90.40
2019-04-23T18:11:52.280Z,90.20
2019-04-23T18:16:41.032Z,90.20
2019-04-23T18:19:10.237Z,90.40
2019-04-23T18:27:06.706Z,91.10
2019-04-23T18:32:32.800Z,92.00
2019-04-23T18:35:15.515Z,91.60
2019-04-23T18:40:00.369Z,92.10
2019-04-23T18:42:41.729Z,92.40
2019-04-23T18:45:20.253Z,92.60
2019-04-23T18:47:48.928Z,92.90
2019-04-23T18:50:19.551Z,93.30
2019-04-23T18:55:19.146Z,93.70
2019-04-23T18:57:40.229Z,93.80
2019-04-23T19:00:18.885Z,94.30
2019-04-23T19:10:38.152Z,96.00
2019-04-23T19:13:09.558Z,96.30
2019-04-23T19:15:39.639Z,96.90
2019-04-23T19:18:06.021Z,96.70
2019-04-23T19:23:16.460Z,96.90
2019-04-23T19:25:38.920Z,97.20
2019-04-23T19:28:33.147Z,97.10
2019-04-23T19:30:57.269Z,96.70
2019-04-23T19:33:29.294Z,97.70
2019-04-23T19:36:03.845Z,97.30
2019-04-23T19:38:29.216Z,97.50
2019-04-23T19:43:31.351Z,97.30
2019-04-23T19:48:33.448Z,98.40
2019-04-23T19:56:16.788Z,99.90
2019-04-23T19:58:56.798Z,99.90
2019-04-23T20:03:50.116Z,99.90
2019-04-23T20:06:27.314Z,99.90
2019-04-23T20:11:43.837Z,99.90
2019-04-23T20:14:03.194Z,99.90
2019-04-23T20:17:04.436Z,99.90
2019-04-23T20:21:39.783Z,99.90
2019-04-23T20:26:50.399Z,99.90
2019-04-23T20:29:45.453Z,99.90
2019-04-23T20:34:56.480Z,99.90
2019-04-23T20:37:12.555Z,99.90
2019-04-23T20:39:55.086Z,99.90
2019-04-23T20:44:53.472Z,99.90
2019-04-23T20:47:15.586Z,99.90
2019-04-23T20:49:48.960Z,99.90
2019-04-23T20:52:29.304Z,99.90
2019-04-23T20:57:43.108Z,99.90
2019-04-23T21:00:04.788Z,99.90
2019-04-23T21:07:57.510Z,99.90
2019-04-23T21:13:05.645Z,99.90
2019-04-23T21:15:28.326Z,99.90
2019-04-23T21:20:35.752Z,99.90
2019-04-23T21:23:04.170Z,99.90
2019-04-23T21:25:31.065Z,99.90
2019-04-23T21:31:00.645Z,99.90
2019-04-23T21:33:18.951Z,99.90
2019-04-23T21:44:08.613Z,99.90
2019-04-23T21:46:36.748Z,99.90
2019-04-23T21:51:49.292Z,99.90
2019-04-23T21:54:01.868Z,99.90
2019-04-23T21:56:39.612Z,99.90
2019-04-23T21:59:11.954Z,99.90
2019-04-23T22:06:43.422Z,99.90
2019-04-23T22:09:16.008Z,99.90
2019-04-23T22:14:10.247Z,99.90
2019-04-23T22:16:53.936Z,99.90
2019-04-23T22:19:19.715Z,99.90
2019-04-23T22:24:21.404Z,99.90
2019-04-23T22:26:38.154Z,99.90
2019-04-23T22:29:26.129Z,99.90
2019-04-23T22:31:47.190Z,99.90
2019-04-23T22:34:17.620Z,99.90
2019-04-23T22:36:51.819Z,99.90
2019-04-23T22:39:17.681Z,99.90
2019-04-23T22:41:54.172Z,99.90
2019-04-23T22:44:14.429Z,99.90
2019-04-23T22:46:52.443Z,99.90
2019-04-23T22:52:18.770Z,99.90
2019-04-23T22:54:30.656Z,99.90
2019-04-23T22:56:57.900Z,99.90
2019-04-23T22:59:50.892Z,99.90
2019-04-23T23:05:12.175Z,99.90
2019-04-23T23:07:47.150Z,99.90
2019-04-23T23:10:12.441Z,99.90
2019-04-23T23:12:56.032Z,99.90
2019-04-23T23:15:09.983Z,99.90
2019-04-23T23:17:43.017Z,99.90
2019-04-23T23:20:14.028Z,99.90
2019-04-23T23:22:51.802Z,99.90
2019-04-23T23:25:15.187Z,99.90
2019-04-23T23:27:40.436Z,99.90
2019-04-23T23:30:12.467Z,99.90
2019-04-23T23:32:39.676Z,99.90
2019-04-23T23:35:24.521Z,99.90
2019-04-23T23:37:44.248Z,99.90
2019-04-23T23:43:00.216Z,99.90
2019-04-23T23:47:52.245Z,99.90
2019-04-23T23:50:35.439Z,99.90
2019-04-23T23:53:00.190Z,99.90
2019-04-23T23:55:25.245Z,99.90
2019-04-23T23:57:51.157Z,99.90
